Time;durP1;ratioP1;P1;durP2;ratioP2;P2;SDS_P1;SDS_P2;PMS_P1;PMS_P2;Temp;Humidity;BMP_temperature;BMP_pressure;BME280_temperature;BME280_humidity;BME280_pressure;Samples;Min_cycle;Max_cycle;Signal;HPM_P1;HPM_P2
2022/03/16 00:00:17;;;;;;;10.68;2.08;;;21.90;71.70;;;;;;5030366;28;20484;-72
2022/03/16 00:02:44;;;;;;;11.27;2.22;;;21.90;71.60;;;;;;5026425;28;20022;-74
2022/03/16 00:05:11;;;;;;;7.93;2.33;;;21.80;71.60;;;;;;5012670;28;20033;-73
2022/03/16 00:07:38;;;;;;;8.68;1.75;;;21.80;71.60;;;;;;5027740;28;20022;-75
2022/03/16 00:10:07;;;;;;;9.05;4.63;;;21.80;71.60;;;;;;5022606;28;20036;-73
2022/03/16 00:12:35;;;;;;;16.25;3.50;;;21.80;71.50;;;;;;5025038;28;20102;-74
2022/03/16 00:15:01;;;;;;;12.93;2.25;;;21.80;71.50;;;;;;5026121;28;20046;-75
2022/03/16 00:17:28;;;;;;;12.85;2.08;;;21.70;71.40;;;;;;5023579;28;20121;-72
2022/03/16 00:19:54;;;;;;;8.40;2.47;;;21.70;71.30;;;;;;5015263;28;20099;-72
2022/03/16 00:22:20;;;;;;;11.32;1.88;;;21.70;71.30;;;;;;5028980;28;20021;-73
2022/03/16 00:24:47;;;;;;;13.95;2.72;;;21.70;71.30;;;;;;5024118;28;20100;-75
2022/03/16 00:27:14;;;;;;;9.63;2.03;;;21.70;71.50;;;;;;5024069;28;20028;-74
2022/03/16 00:29:40;;;;;;;19.35;3.28;;;21.70;71.50;;;;;;5030414;28;20029;-74
2022/03/16 00:32:07;;;;;;;8.10;2.15;;;21.60;71.60;;;;;;5026777;28;20128;-72
2022/03/16 00:34:34;;;;;;;5.38;1.98;;;21.70;71.70;;;;;;5026855;28;20033;-76
2022/03/16 00:37:00;;;;;;;12.45;2.78;;;21.60;71.70;;;;;;5026055;28;20038;-74
2022/03/16 00:39:27;;;;;;;8.10;2.20;;;21.60;71.70;;;;;;5025993;28;20029;-72
2022/03/16 00:41:53;;;;;;;9.18;2.53;;;21.60;71.70;;;;;;5024053;28;20033;-72
2022/03/16 00:44:20;;;;;;;12.20;1.70;;;21.60;71.70;;;;;;5024154;28;20065;-71
2022/03/16 00:46:46;;;;;;;15.73;2.25;;;21.60;71.70;;;;;;5027764;28;20387;-71
2022/03/16 00:49:13;;;;;;;7.55;1.95;;;21.60;71.70;;;;;;5023817;28;20021;-72
2022/03/16 00:51:40;;;;;;;18.77;2.72;;;21.60;71.70;;;;;;5014570;28;20100;-71
2022/03/16 00:54:06;;;;;;;26.60;3.65;;;21.60;71.80;;;;;;5015171;28;20026;-72
2022/03/16 00:56:33;;;;;;;13.13;2.80;;;21.60;72.00;;;;;;5016008;28;20049;-74
2022/03/16 00:58:59;;;;;;;9.52;1.77;;;21.60;72.20;;;;;;5018863;28;20025;-73
2022/03/16 01:01:26;;;;;;;20.40;2.30;;;21.50;72.00;;;;;;5011907;28;20014;-74
2022/03/16 01:03:52;;;;;;;9.43;1.67;;;21.50;71.80;;;;;;5014161;28;20045;-72
2022/03/16 01:06:20;;;;;;;20.23;2.40;;;21.50;71.70;;;;;;5022439;28;20061;-75
2022/03/16 01:08:46;;;;;;;10.90;1.73;;;21.50;72.00;;;;;;5028592;28;20025;-72
2022/03/16 01:11:13;;;;;;;12.00;2.03;;;21.50;72.10;;;;;;5026483;28;20021;-71
2022/03/16 01:13:41;;;;;;;6.93;2.55;;;21.50;72.10;;;;;;5028606;28;20139;-73
2022/03/16 01:16:08;;;;;;;7.20;3.30;;;21.50;72.10;;;;;;5023852;28;20397;-72
2022/03/16 01:18:35;;;;;;;7.63;1.48;;;21.40;72.00;;;;;;5023300;28;20035;-73
2022/03/16 01:21:03;;;;;;;21.02;2.70;;;21.40;72.00;;;;;;5022236;28;20091;-71
2022/03/16 01:23:30;;;;;;;17.48;3.33;;;21.40;72.20;;;;;;5018739;28;20068;-74
2022/03/16 01:25:56;;;;;;;6.75;1.90;;;21.40;72.40;;;;;;5028999;28;20059;-72
2022/03/16 01:28:22;;;;;;;6.00;1.30;;;21.40;72.30;;;;;;5022679;28;20036;-75
2022/03/16 01:30:49;;;;;;;3.88;1.33;;;21.40;72.30;;;;;;5020748;28;20028;-72
2022/03/16 01:33:15;;;;;;;8.32;2.20;;;21.40;72.30;;;;;;5024173;28;20540;-72
2022/03/16 01:35:42;;;;;;;11.55;1.75;;;21.40;72.30;;;;;;5026030;28;20156;-75
2022/03/16 01:38:08;;;;;;;5.28;1.88;;;21.40;72.40;;;;;;5023903;28;20025;-72
2022/03/16 01:40:35;;;;;;;5.40;2.38;;;21.30;72.50;;;;;;5023323;28;20075;-71
2022/03/16 01:43:01;;;;;;;11.57;2.80;;;21.40;72.70;;;;;;5025290;28;20404;-72
2022/03/16 01:45:28;;;;;;;11.10;2.90;;;21.30;72.80;;;;;;5026978;28;20052;-72
2022/03/16 01:47:54;;;;;;;8.25;2.95;;;21.30;73.10;;;;;;5019510;28;20010;-72
2022/03/16 01:50:21;;;;;;;22.15;2.42;;;21.30;73.30;;;;;;5022196;28;20025;-72
2022/03/16 01:52:47;;;;;;;16.48;1.88;;;21.30;73.30;;;;;;5019634;28;20452;-73
2022/03/16 01:55:15;;;;;;;5.53;1.77;;;21.30;73.20;;;;;;5031244;28;20397;-72
2022/03/16 01:57:46;;;;;;;8.98;2.63;;;21.30;73.20;;;;;;5020223;28;20032;-74
2022/03/16 02:00:14;;;;;;;10.07;2.10;;;21.30;73.10;;;;;;5017060;28;20038;-73
2022/03/16 02:02:40;;;;;;;5.32;1.73;;;21.30;73.10;;;;;;5023165;28;20040;-74
2022/03/16 02:05:07;;;;;;;9.63;2.72;;;21.30;73.00;;;;;;5030616;28;20099;-73
2022/03/16 02:07:33;;;;;;;10.32;2.45;;;21.30;72.90;;;;;;5024936;28;20022;-71
2022/03/16 02:10:04;;;;;;;7.15;1.85;;;21.30;72.90;;;;;;5018103;28;20018;-72
2022/03/16 02:12:41;;;;;;;3.88;2.03;;;21.30;72.70;;;;;;5019370;28;20112;-72
2022/03/16 02:15:08;;;;;;;5.55;1.20;;;21.30;72.60;;;;;;5024475;28;20045;-72
2022/03/16 02:17:34;;;;;;;6.50;1.40;;;21.20;72.40;;;;;;5023876;28;20022;-72
2022/03/16 02:20:01;;;;;;;12.00;1.80;;;21.20;72.40;;;;;;5024649;28;20028;-72
2022/03/16 02:22:29;;;;;;;13.32;1.92;;;21.20;72.40;;;;;;5020374;28;20385;-75
2022/03/16 02:24:56;;;;;;;13.13;3.53;;;21.20;72.50;;;;;;5029094;28;20025;-76
2022/03/16 02:27:22;;;;;;;12.40;1.92;;;21.20;72.40;;;;;;5020322;28;20473;-74
2022/03/16 02:29:49;;;;;;;13.23;1.90;;;21.20;72.40;;;;;;5029551;28;20022;-73
2022/03/16 02:32:16;;;;;;;23.83;3.03;;;21.10;72.30;;;;;;5024524;28;20030;-72
2022/03/16 02:34:42;;;;;;;18.95;2.45;;;21.20;72.60;;;;;;5027704;28;20472;-72
2022/03/16 02:37:09;;;;;;;40.33;3.80;;;21.10;72.70;;;;;;5024891;28;20046;-74
2022/03/16 02:39:35;;;;;;;23.23;2.75;;;21.10;73.40;;;;;;5028877;28;20025;-73
2022/03/16 02:42:02;;;;;;;4.78;2.00;;;21.10;72.30;;;;;;5025909;28;20500;-74
2022/03/16 02:44:28;;;;;;;9.60;3.20;;;21.10;71.90;;;;;;5029770;28;20464;-74
2022/03/16 02:46:55;;;;;;;8.68;2.22;;;21.10;71.60;;;;;;5028150;28;20022;-74
2022/03/16 02:49:22;;;;;;;7.13;2.40;;;21.10;71.40;;;;;;5017858;28;20495;-72
2022/03/16 02:51:48;;;;;;;8.45;2.42;;;21.10;71.40;;;;;;5036688;28;20045;-74
2022/03/16 02:54:15;;;;;;;6.07;1.90;;;21.10;71.40;;;;;;5011505;28;22244;-72
2022/03/16 02:56:41;;;;;;;4.55;2.05;;;21.10;71.50;;;;;;5024712;28;20492;-73
2022/03/16 02:59:08;;;;;;;11.05;3.55;;;21.00;71.50;;;;;;5025418;28;20570;-72
2022/03/16 03:01:34;;;;;;;20.60;12.70;;;21.00;71.60;;;;;;5026050;28;20075;-72
2022/03/16 03:04:01;;;;;;;10.75;7.75;;;21.00;71.60;;;;;;5023386;28;20029;-71
2022/03/16 03:06:27;;;;;;;13.68;4.63;;;21.00;71.60;;;;;;5022615;28;20064;-73
2022/03/16 03:08:54;;;;;;;11.05;2.75;;;21.00;71.60;;;;;;5029086;28;20081;-72
2022/03/16 03:11:20;;;;;;;12.75;2.45;;;21.00;71.60;;;;;;5027189;28;20440;-73
2022/03/16 03:13:47;;;;;;;8.50;2.47;;;21.00;71.90;;;;;;5031047;28;20041;-73
2022/03/16 03:16:13;;;;;;;5.80;1.42;;;21.00;72.00;;;;;;5027832;28;20037;-72
2022/03/16 03:18:40;;;;;;;6.82;1.58;;;21.00;72.00;;;;;;5027488;28;20028;-72
2022/03/16 03:21:06;;;;;;;6.45;1.90;;;21.00;72.10;;;;;;5024982;28;20032;-72
2022/03/16 03:23:33;;;;;;;7.93;1.95;;;21.00;72.20;;;;;;5024157;28;20508;-72
2022/03/16 03:25:59;;;;;;;13.57;2.28;;;21.00;72.30;;;;;;5023208;28;20052;-71
2022/03/16 03:28:26;;;;;;;44.40;4.60;;;21.00;72.40;;;;;;5025052;28;20018;-72
2022/03/16 03:30:52;;;;;;;53.78;4.47;;;20.90;72.10;;;;;;5026517;28;20025;-72
2022/03/16 03:33:19;;;;;;;28.45;2.65;;;21.00;72.20;;;;;;5025422;28;20298;-72
2022/03/16 03:35:45;;;;;;;12.60;2.17;;;21.00;72.30;;;;;;5026289;28;20498;-72
2022/03/16 03:38:13;;;;;;;6.70;1.67;;;20.90;72.00;;;;;;5024392;28;20032;-72
2022/03/16 03:40:39;;;;;;;10.05;1.80;;;20.90;71.80;;;;;;5008516;28;20452;-73
2022/03/16 03:43:06;;;;;;;19.27;2.10;;;20.90;71.50;;;;;;5028957;28;20044;-74
2022/03/16 03:45:32;;;;;;;40.42;3.83;;;20.90;71.20;;;;;;5027286;28;20083;-74
2022/03/16 03:47:58;;;;;;;34.38;3.83;;;20.90;71.10;;;;;;5022694;28;20029;-73
2022/03/16 03:50:25;;;;;;;15.95;2.60;;;20.90;71.40;;;;;;5022990;28;20029;-73
2022/03/16 03:52:51;;;;;;;5.43;1.58;;;20.90;71.70;;;;;;5032374;28;20389;-74
2022/03/16 03:55:18;;;;;;;11.00;2.17;;;20.90;71.60;;;;;;5022762;28;20384;-71
2022/03/16 03:57:45;;;;;;;4.38;1.10;;;20.90;71.60;;;;;;5033099;28;20021;-74
2022/03/16 04:00:12;;;;;;;16.48;1.88;;;20.90;71.50;;;;;;5013829;28;20021;-73
2022/03/16 04:02:38;;;;;;;4.72;1.50;;;20.90;71.40;;;;;;5028203;28;20033;-72
2022/03/16 04:05:05;;;;;;;11.85;2.22;;;20.90;71.30;;;;;;5022883;28;20018;-73
2022/03/16 04:07:31;;;;;;;8.88;1.17;;;20.90;71.40;;;;;;5032127;28;20013;-71
2022/03/16 04:09:58;;;;;;;593.70;530.13;;;20.90;71.50;;;;;;5027522;28;20040;-73
2022/03/16 04:12:26;;;;;;;108.95;82.90;;;20.90;72.30;;;;;;5029488;28;20025;-72
2022/03/16 04:14:53;;;;;;;67.88;40.28;;;20.90;72.50;;;;;;5012030;28;20076;-72
2022/03/16 04:17:19;;;;;;;36.20;19.95;;;20.90;72.80;;;;;;5027711;28;20041;-72
2022/03/16 04:19:46;;;;;;;24.58;10.80;;;20.90;72.80;;;;;;5027119;28;20021;-71
2022/03/16 04:22:12;;;;;;;20.27;7.40;;;20.90;72.40;;;;;;5024279;28;20026;-72
2022/03/16 04:24:39;;;;;;;12.10;3.75;;;20.90;72.70;;;;;;5030468;28;20029;-72
2022/03/16 04:27:05;;;;;;;10.50;4.60;;;20.90;72.50;;;;;;5031562;28;20069;-72
2022/03/16 04:29:32;;;;;;;11.95;5.88;;;20.80;72.30;;;;;;5024655;28;20053;-72
2022/03/16 04:31:58;;;;;;;11.95;4.88;;;20.80;72.20;;;;;;5024859;28;20042;-71
2022/03/16 04:34:25;;;;;;;9.55;3.83;;;20.80;72.20;;;;;;5025561;28;20068;-69
2022/03/16 04:36:51;;;;;;;9.77;3.08;;;20.80;72.20;;;;;;5021029;28;20043;-69
2022/03/16 04:39:18;;;;;;;7.90;2.30;;;20.80;72.10;;;;;;5019637;28;20092;-73
2022/03/16 04:41:44;;;;;;;10.38;2.05;;;20.80;72.10;;;;;;5019829;28;20523;-71
2022/03/16 04:44:11;;;;;;;6.80;2.13;;;20.80;72.20;;;;;;5026065;28;20033;-71
2022/03/16 04:46:38;;;;;;;3.75;1.40;;;20.80;72.20;;;;;;5029993;28;20371;-71
2022/03/16 04:49:04;;;;;;;7.05;1.35;;;20.80;72.20;;;;;;5024855;28;20022;-71
2022/03/16 04:51:31;;;;;;;16.30;1.88;;;20.70;72.20;;;;;;5023429;28;20035;-72
2022/03/16 04:53:57;;;;;;;7.63;1.42;;;20.80;72.90;;;;;;5035231;28;20017;-73
2022/03/16 04:56:24;;;;;;;28.80;3.05;;;20.80;72.20;;;;;;5024856;28;20037;-69
2022/03/16 04:58:50;;;;;;;13.95;1.35;;;20.80;72.30;;;;;;5021322;28;20120;-70
2022/03/16 05:01:17;;;;;;;6.43;1.42;;;20.80;72.20;;;;;;5026852;28;20017;-71
2022/03/16 05:03:45;;;;;;;2.28;1.27;;;20.80;71.90;;;;;;5022806;28;20494;-70
2022/03/16 05:06:12;;;;;;;3.10;1.27;;;20.70;71.50;;;;;;5024742;28;20084;-70
2022/03/16 05:08:38;;;;;;;3.55;1.42;;;20.70;71.20;;;;;;5029547;28;20566;-71
2022/03/16 05:11:05;;;;;;;7.18;1.27;;;20.70;70.90;;;;;;5027641;28;20026;-70
2022/03/16 05:13:32;;;;;;;21.05;2.80;;;20.80;70.80;;;;;;5025500;28;20037;-70
2022/03/16 05:15:58;;;;;;;14.85;3.15;;;20.80;70.60;;;;;;5024282;28;20044;-70
2022/03/16 05:18:26;;;;;;;42.90;4.68;;;20.70;70.20;;;;;;5025930;28;20357;-71
2022/03/16 05:20:52;;;;;;;40.97;4.07;;;20.80;71.20;;;;;;5017335;28;20087;-70
2022/03/16 05:23:19;;;;;;;22.52;2.92;;;20.80;71.10;;;;;;5021693;28;20053;-70
2022/03/16 05:25:45;;;;;;;10.75;1.63;;;20.80;70.70;;;;;;5020413;28;20024;-70
2022/03/16 05:28:12;;;;;;;25.05;2.42;;;20.80;70.90;;;;;;5028484;28;20457;-70
2022/03/16 05:30:38;;;;;;;10.23;1.50;;;20.80;71.20;;;;;;5025419;28;20018;-70
2022/03/16 05:33:05;;;;;;;1.85;0.98;;;20.90;71.00;;;;;;5028028;28;20476;-71
2022/03/16 05:35:32;;;;;;;1.83;1.25;;;20.90;70.80;;;;;;5023811;28;20041;-71
2022/03/16 05:38:00;;;;;;;2.78;1.10;;;20.90;70.80;;;;;;5028487;28;20013;-71
2022/03/16 05:40:26;;;;;;;2.10;0.90;;;20.90;70.80;;;;;;5026648;28;20514;-71
2022/03/16 05:42:52;;;;;;;2.47;1.20;;;20.90;70.80;;;;;;5020132;28;20053;-71
2022/03/16 05:45:19;;;;;;;3.65;1.60;;;21.00;70.60;;;;;;5020666;28;20072;-70
2022/03/16 05:47:46;;;;;;;4.30;2.35;;;21.00;70.60;;;;;;5027383;28;20438;-70
2022/03/16 05:50:12;;;;;;;6.45;1.10;;;21.00;70.50;;;;;;5019272;28;20064;-70
2022/03/16 05:52:40;;;;;;;5.72;1.25;;;21.00;71.10;;;;;;5027834;28;20025;-70
2022/03/16 05:55:07;;;;;;;6.78;1.40;;;21.00;70.40;;;;;;5017903;28;20025;-70
2022/03/16 05:57:37;;;;;;;3.25;1.23;;;21.00;70.40;;;;;;5024249;28;20022;-70
2022/03/16 06:00:05;;;;;;;0.90;0.85;;;21.00;70.30;;;;;;5019640;28;20095;-70
2022/03/16 06:02:32;;;;;;;2.00;0.98;;;21.00;70.10;;;;;;5019108;28;20026;-71
2022/03/16 06:04:58;;;;;;;6.40;1.83;;;21.10;70.20;;;;;;5019599;28;20101;-70
2022/03/16 06:07:25;;;;;;;5.07;1.42;;;21.10;70.10;;;;;;5024356;28;20112;-70
2022/03/16 06:09:51;;;;;;;6.53;1.58;;;21.10;70.10;;;;;;5025882;28;20504;-71
2022/03/16 06:12:18;;;;;;;5.30;1.70;;;21.10;70.10;;;;;;5017484;28;20626;-71
2022/03/16 06:14:44;;;;;;;10.32;1.92;;;21.20;70.30;;;;;;5027920;28;20029;-70
2022/03/16 06:17:10;;;;;;;4.45;1.80;;;21.20;70.20;;;;;;5018902;28;20034;-70
2022/03/16 06:19:37;;;;;;;1.35;0.75;;;21.20;70.20;;;;;;5024259;28;20022;-70
2022/03/16 06:22:03;;;;;;;6.10;1.20;;;21.20;70.10;;;;;;5028287;28;20431;-70
2022/03/16 06:24:30;;;;;;;5.35;1.45;;;21.20;70.10;;;;;;5024150;28;20032;-71
2022/03/16 06:26:56;;;;;;;1.27;0.80;;;21.20;70.20;;;;;;5017260;28;20068;-70
2022/03/16 06:29:23;;;;;;;2.13;1.17;;;21.20;70.00;;;;;;5023454;28;20049;-70
2022/03/16 06:31:50;;;;;;;4.85;1.92;;;21.30;70.00;;;;;;5020152;28;20384;-70
2022/03/16 06:34:16;;;;;;;3.78;1.35;;;21.30;69.70;;;;;;5020910;28;20033;-70
2022/03/16 06:36:43;;;;;;;12.13;1.63;;;21.30;69.50;;;;;;5021898;28;20506;-70
2022/03/16 06:39:09;;;;;;;11.57;1.33;;;21.40;69.50;;;;;;5018819;28;20109;-71
2022/03/16 06:41:36;;;;;;;6.25;2.28;;;21.40;69.40;;;;;;5017095;28;20040;-70
2022/03/16 06:44:02;;;;;;;3.33;1.05;;;21.40;69.30;;;;;;5021444;28;20061;-71
2022/03/16 06:46:29;;;;;;;1.90;0.93;;;21.40;69.00;;;;;;5007865;28;20662;-71
2022/03/16 06:48:55;;;;;;;3.50;0.80;;;21.50;68.90;;;;;;5026140;28;20091;-70
2022/03/16 06:51:22;;;;;;;2.10;0.80;;;21.50;68.60;;;;;;5025415;28;20006;-70
2022/03/16 06:53:49;;;;;;;1.92;0.63;;;21.50;68.70;;;;;;5021378;28;20022;-70
2022/03/16 06:56:15;;;;;;;0.85;0.52;;;21.60;68.90;;;;;;5021794;28;20459;-70
2022/03/16 06:58:42;;;;;;;7.65;1.10;;;21.60;69.00;;;;;;5024077;28;20499;-70
2022/03/16 07:01:09;;;;;;;5.10;0.50;;;21.60;68.80;;;;;;5023219;28;20029;-70
2022/03/16 07:03:35;;;;;;;7.95;1.08;;;21.70;68.60;;;;;;5020637;28;20033;-71
2022/03/16 07:06:02;;;;;;;3.33;1.33;;;21.70;69.10;;;;;;5026622;28;20474;-70
2022/03/16 07:08:28;;;;;;;2.70;0.93;;;21.70;68.00;;;;;;5026949;28;20026;-71
2022/03/16 07:10:55;;;;;;;12.55;1.85;;;21.70;67.80;;;;;;5020266;28;20030;-71
2022/03/16 07:13:21;;;;;;;5.65;1.10;;;21.80;67.80;;;;;;5020393;28;20128;-71
2022/03/16 07:15:48;;;;;;;6.95;1.85;;;21.80;68.20;;;;;;5030190;28;20125;-70
2022/03/16 07:18:15;;;;;;;3.47;0.93;;;21.90;68.30;;;;;;5023282;28;20022;-70
2022/03/16 07:20:41;;;;;;;2.65;0.98;;;21.80;68.20;;;;;;5025552;28;20036;-70
2022/03/16 07:23:10;;;;;;;4.40;1.15;;;21.90;68.20;;;;;;5022094;28;20455;-70
2022/03/16 07:25:38;;;;;;;2.65;1.02;;;21.90;68.00;;;;;;5024379;28;20041;-69
2022/03/16 07:28:06;;;;;;;7.28;1.27;;;21.90;67.80;;;;;;5007972;28;20547;-70
2022/03/16 07:30:33;;;;;;;3.45;0.80;;;22.00;67.90;;;;;;5023876;28;20049;-69
2022/03/16 07:33:00;;;;;;;3.42;0.98;;;22.00;67.70;;;;;;5026963;28;20030;-70
2022/03/16 07:35:27;;;;;;;6.05;0.82;;;22.00;67.40;;;;;;5040680;28;20094;-70
2022/03/16 07:37:55;;;;;;;4.13;0.80;;;22.10;66.90;;;;;;5026248;28;20067;-69
2022/03/16 07:40:23;;;;;;;1.30;0.60;;;22.10;66.70;;;;;;5021400;28;20409;-69
2022/03/16 07:42:50;;;;;;;3.95;1.05;;;22.10;66.70;;;;;;5020756;28;20396;-69
2022/03/16 07:45:18;;;;;;;6.30;1.75;;;22.20;67.90;;;;;;5023742;28;20548;-70
2022/03/16 07:47:49;;;;;;;4.97;1.02;;;22.20;67.50;;;;;;5022238;28;20476;-69
2022/03/16 07:50:19;;;;;;;6.50;1.23;;;22.30;67.00;;;;;;5019903;28;20425;-70
2022/03/16 07:52:46;;;;;;;14.90;1.55;;;22.30;66.60;;;;;;5026791;28;20032;-69
2022/03/16 07:55:16;;;;;;;15.88;1.98;;;22.30;66.70;;;;;;5026493;28;20026;-70
2022/03/16 07:57:43;;;;;;;13.48;2.08;;;22.30;66.50;;;;;;5026590;28;20075;-70
2022/03/16 08:00:12;;;;;;;5.43;1.73;;;22.40;66.10;;;;;;5018021;28;20028;-69
2022/03/16 08:02:39;;;;;;;5.88;1.65;;;22.40;65.60;;;;;;5028326;28;20084;-70
2022/03/16 08:05:06;;;;;;;5.40;1.15;;;22.50;65.50;;;;;;5027982;28;20035;-69
2022/03/16 08:07:33;;;;;;;5.00;1.70;;;22.50;65.10;;;;;;5026117;28;20552;-70
2022/03/16 08:10:00;;;;;;;18.27;1.95;;;22.50;64.90;;;;;;5023895;28;20025;-69
2022/03/16 08:12:27;;;;;;;8.23;1.15;;;22.50;64.70;;;;;;5024201;28;20029;-70
2022/03/16 08:14:54;;;;;;;4.35;1.23;;;22.60;64.70;;;;;;5025250;28;20046;-69
2022/03/16 08:17:20;;;;;;;4.70;1.17;;;22.60;64.30;;;;;;5021964;28;20508;-70
2022/03/16 08:19:47;;;;;;;3.33;1.08;;;22.70;64.00;;;;;;5027359;28;20045;-70
2022/03/16 08:22:13;;;;;;;3.95;1.00;;;22.70;64.00;;;;;;5030931;28;20026;-69
2022/03/16 08:24:40;;;;;;;5.32;1.00;;;22.70;63.60;;;;;;5026851;28;20083;-69
2022/03/16 08:27:06;;;;;;;2.10;0.90;;;22.70;63.40;;;;;;5024541;28;20543;-70
2022/03/16 08:29:33;;;;;;;2.47;1.17;;;22.70;63.20;;;;;;5026608;28;20104;-69
2022/03/16 08:32:00;;;;;;;3.50;1.45;;;22.80;63.10;;;;;;5021806;28;20034;-69
2022/03/16 08:34:27;;;;;;;5.15;1.30;;;22.80;62.90;;;;;;5021566;28;20026;-70
2022/03/16 08:36:56;;;;;;;5.03;1.45;;;22.80;62.70;;;;;;5023321;28;20211;-70
2022/03/16 08:39:22;;;;;;;3.55;1.13;;;22.90;62.80;;;;;;5021792;28;20018;-70
2022/03/16 08:41:49;;;;;;;4.68;0.82;;;22.90;62.60;;;;;;5023012;28;20024;-69
2022/03/16 08:44:15;;;;;;;4.80;0.63;;;23.00;62.50;;;;;;5019980;28;20092;-70
2022/03/16 08:46:42;;;;;;;3.97;0.80;;;23.00;62.30;;;;;;5025371;28;20021;-70
2022/03/16 08:49:08;;;;;;;8.77;0.80;;;23.00;62.00;;;;;;5026204;28;20018;-70
2022/03/16 08:51:35;;;;;;;2.60;1.25;;;23.10;61.80;;;;;;5023105;28;20105;-69
2022/03/16 08:54:01;;;;;;;3.08;1.33;;;23.10;61.70;;;;;;5024531;28;20025;-69
2022/03/16 08:56:28;;;;;;;4.18;0.90;;;23.20;61.70;;;;;;5028819;28;20812;-69
2022/03/16 08:58:54;;;;;;;5.35;0.88;;;23.20;61.70;;;;;;5025317;28;20381;-69
2022/03/16 09:01:21;;;;;;;3.42;0.80;;;23.30;61.60;;;;;;5020901;28;20030;-69
2022/03/16 09:03:47;;;;;;;3.05;1.17;;;23.30;61.50;;;;;;5027467;28;20618;-70
2022/03/16 09:06:13;;;;;;;3.08;1.23;;;23.30;61.30;;;;;;5021699;28;20041;-69
2022/03/16 09:08:40;;;;;;;1.65;0.88;;;23.40;61.20;;;;;;5018053;28;20052;-69
2022/03/16 09:11:06;;;;;;;1.52;0.90;;;23.40;61.10;;;;;;5026052;28;20024;-69
2022/03/16 09:13:34;;;;;;;7.30;1.13;;;23.50;60.90;;;;;;5023045;28;20049;-70
2022/03/16 09:16:01;;;;;;;3.10;1.20;;;23.50;60.80;;;;;;5021256;28;20113;-69
2022/03/16 09:18:29;;;;;;;3.20;0.73;;;23.60;60.90;;;;;;5021557;28;20021;-69
2022/03/16 09:20:55;;;;;;;1.23;0.98;;;23.60;60.70;;;;;;5024609;28;20427;-69
2022/03/16 09:23:22;;;;;;;5.32;1.38;;;23.60;60.50;;;;;;5027280;28;20049;-70
2022/03/16 09:25:48;;;;;;;2.63;0.80;;;23.70;60.30;;;;;;5022111;28;20381;-69
2022/03/16 09:28:15;;;;;;;3.42;1.27;;;23.80;60.10;;;;;;5023840;28;20017;-70
2022/03/16 09:30:41;;;;;;;10.18;1.65;;;23.80;59.80;;;;;;5018175;28;20017;-70
2022/03/16 09:33:09;;;;;;;1.90;1.30;;;23.90;59.80;;;;;;5028217;28;20072;-69
2022/03/16 09:35:35;;;;;;;4.47;1.20;;;23.90;59.70;;;;;;5023010;28;20471;-69
2022/03/16 09:38:02;;;;;;;4.15;1.90;;;24.00;59.20;;;;;;5025637;28;20078;-69
2022/03/16 09:40:30;;;;;;;4.13;1.40;;;24.00;59.00;;;;;;5022294;28;20017;-70
2022/03/16 09:42:58;;;;;;;8.10;1.23;;;24.00;59.10;;;;;;5022859;28;20112;-70
2022/03/16 09:45:29;;;;;;;2.55;1.15;;;24.10;59.20;;;;;;5021290;28;20048;-70
2022/03/16 09:47:56;;;;;;;4.50;1.50;;;24.20;58.90;;;;;;5029390;28;20168;-70
2022/03/16 09:50:23;;;;;;;2.28;0.98;;;24.20;58.70;;;;;;5020153;28;20036;-69
2022/03/16 09:52:49;;;;;;;5.53;0.85;;;24.30;58.80;;;;;;5020299;28;20045;-70
2022/03/16 09:55:17;;;;;;;2.60;1.00;;;24.30;58.70;;;;;;5021228;28;20489;-70
2022/03/16 09:57:44;;;;;;;1.88;0.73;;;24.40;58.60;;;;;;5024490;28;20057;-70
2022/03/16 10:00:13;;;;;;;2.85;1.30;;;24.40;58.30;;;;;;5024560;28;20530;-71
2022/03/16 10:02:40;;;;;;;5.55;1.20;;;24.50;58.30;;;;;;5023263;28;20021;-70
2022/03/16 10:05:10;;;;;;;6.15;2.30;;;24.60;58.10;;;;;;5020489;28;20388;-71
2022/03/16 10:07:38;;;;;;;4.25;0.80;;;24.60;58.20;;;;;;5023306;28;20026;-71
2022/03/16 10:15:38;;;;;;;3.35;0.77;;;24.70;57.60;;;;;;5020295;28;20084;-71
2022/03/16 10:18:05;;;;;;;1.83;1.17;;;24.80;57.50;;;;;;5022905;28;20036;-72
2022/03/16 10:20:39;;;;;;;3.88;1.02;;;24.80;57.40;;;;;;5019985;28;20535;-72
2022/03/16 10:23:14;;;;;;;5.70;1.45;;;24.90;57.40;;;;;;5023120;28;20484;-71
2022/03/16 10:25:45;;;;;;;;;;;24.90;57.30;;;;;;5024050;28;20023;-71
2022/03/16 10:28:16;;;;;;;5.70;1.25;;;25.00;57.30;;;;;;5024447;28;19947;-70
2022/03/16 10:30:57;;;;;;;3.72;1.10;;;25.00;57.10;;;;;;5023884;28;20035;-71
2022/03/16 10:33:32;;;;;;;4.57;1.73;;;25.10;56.80;;;;;;5017958;28;20027;-72
2022/03/16 10:36:01;;;;;;;;;;;25.10;56.40;;;;;;5024840;28;20041;-72
2022/03/16 10:38:29;;;;;;;8.15;1.60;;;25.20;56.50;;;;;;5032058;28;19956;-72
2022/03/16 10:41:09;;;;;;;7.18;1.33;;;25.30;56.70;;;;;;5025290;28;20411;-71
2022/03/16 10:46:38;;;;;;;4.70;1.23;;;25.30;56.80;;;;;;5025795;28;20137;-72
2022/03/16 10:49:09;;;;;;;3.28;1.33;;;25.40;56.40;;;;;;5030196;28;20492;-72
2022/03/16 10:51:37;;;;;;;1.58;0.93;;;25.50;55.80;;;;;;5028086;28;20022;-72
2022/03/16 10:54:05;;;;;;;13.63;2.30;;;25.50;55.90;;;;;;5029578;28;20025;-71
2022/03/16 10:56:32;;;;;;;2.33;1.10;;;25.60;56.20;;;;;;5022282;28;20042;-72
2022/03/16 10:59:02;;;;;;;4.90;1.40;;;25.60;55.90;;;;;;5024560;28;20117;-72
2022/03/16 11:01:30;;;;;;;4.25;2.33;;;25.70;55.70;;;;;;5029766;28;20018;-71
2022/03/16 11:03:58;;;;;;;4.88;1.15;;;25.70;55.20;;;;;;5025094;28;20413;-71
2022/03/16 11:06:25;;;;;;;25.08;3.08;;;25.80;54.90;;;;;;5026202;28;20089;-71
2022/03/16 11:08:54;;;;;;;19.90;3.30;;;25.80;55.20;;;;;;5026144;28;20030;-72
2022/03/16 11:14:05;;;;;;;5.22;1.75;;;25.90;54.60;;;;;;5025625;28;20056;-72
2022/03/16 11:16:33;;;;;;;3.28;0.90;;;26.00;53.50;;;;;;5023315;28;20041;-72
2022/03/16 11:19:04;;;;;;;3.38;1.27;;;26.00;53.20;;;;;;5024370;28;20025;-72
2022/03/16 11:21:45;;;;;;;4.03;1.00;;;26.10;53.30;;;;;;5023413;28;20036;-70
2022/03/16 11:24:23;;;;;;;5.22;0.90;;;26.20;53.70;;;;;;5027992;28;20026;-69
2022/03/16 11:26:53;;;;;;;3.08;1.20;;;26.20;53.90;;;;;;5025061;28;20037;-69
2022/03/16 11:29:43;;;;;;;3.60;0.95;;;26.30;53.90;;;;;;5028926;28;20029;-70
2022/03/16 11:32:14;;;;;;;2.28;1.10;;;26.40;54.00;;;;;;5023052;28;20038;-69
2022/03/16 11:34:47;;;;;;;4.38;1.00;;;26.40;54.20;;;;;;5023526;28;20035;-70
2022/03/16 11:37:14;;;;;;;7.45;1.35;;;26.40;54.20;;;;;;5024433;28;20048;-69
2022/03/16 11:39:43;;;;;;;2.22;0.85;;;26.40;54.10;;;;;;5022202;28;20021;-69
2022/03/16 11:42:11;;;;;;;6.38;1.98;;;26.50;53.50;;;;;;5030382;28;20388;-69
2022/03/16 11:44:39;;;;;;;2.72;1.10;;;26.50;53.70;;;;;;5032001;28;20022;-70
2022/03/16 11:47:13;;;;;;;2.42;1.83;;;26.60;53.70;;;;;;5023447;28;20097;-69
2022/03/16 11:49:45;;;;;;;6.47;1.30;;;26.60;53.60;;;;;;5028397;28;20034;-69
2022/03/16 11:52:12;;;;;;;4.75;1.13;;;26.70;53.80;;;;;;5023491;28;20033;-69
2022/03/16 11:54:49;;;;;;;19.17;2.20;;;26.70;53.90;;;;;;5030665;28;20013;-69
2022/03/16 11:57:58;;;;;;;9.10;1.70;;;26.70;54.20;;;;;;5018649;28;20038;-69
2022/03/16 12:00:24;;;;;;;5.05;1.75;;;26.80;54.10;;;;;;5024929;28;20068;-70
2022/03/16 12:02:59;;;;;;;5.15;0.88;;;26.80;54.00;;;;;;5019346;28;20053;-69
2022/03/16 12:05:30;;;;;;;5.05;0.95;;;26.80;53.80;;;;;;5027855;28;20368;-69
2022/03/16 12:08:13;;;;;;;9.93;1.67;;;26.90;53.90;;;;;;5025866;28;20479;-70
2022/03/16 12:10:47;;;;;;;5.82;1.23;;;26.90;54.00;;;;;;5024220;28;20580;-69
2022/03/16 12:13:15;;;;;;;5.15;1.00;;;26.90;54.20;;;;;;5021336;28;20041;-70
2022/03/16 12:15:46;;;;;;;6.28;1.08;;;26.90;54.40;;;;;;5026256;28;21924;-70
2022/03/16 12:18:15;;;;;;;12.80;1.67;;;26.90;54.50;;;;;;5027263;28;20034;-70
2022/03/16 12:20:49;;;;;;;4.07;1.45;;;26.90;54.50;;;;;;5023852;28;20024;-70
2022/03/16 12:23:18;;;;;;;6.40;2.00;;;27.00;54.60;;;;;;5029067;28;20083;-70
2022/03/16 12:25:47;;;;;;;4.18;0.85;;;27.00;54.50;;;;;;5024778;28;20390;-70
2022/03/16 12:31:08;;;;;;;;;;;27.10;54.20;;;;;;5024717;28;20113;-70
2022/03/16 12:33:41;;;;;;;5.13;1.13;;;27.00;53.90;;;;;;5024597;28;20540;-70
2022/03/16 12:36:14;;;;;;;4.95;1.23;;;27.10;54.20;;;;;;5025597;28;20044;-70
2022/03/16 12:38:47;;;;;;;4.70;1.15;;;27.10;54.30;;;;;;5025829;28;20091;-69
2022/03/16 12:44:02;;;;;;;5.47;1.58;;;27.20;54.50;;;;;;5019108;28;20043;-69
2022/03/16 12:46:38;;;;;;;5.50;0.98;;;27.20;54.50;;;;;;5030775;28;20162;-70
2022/03/16 12:49:06;;;;;;;4.10;0.90;;;27.20;54.30;;;;;;5020203;28;20477;-70
2022/03/16 12:51:45;;;;;;;6.10;1.27;;;27.20;54.30;;;;;;5026380;28;20083;-70
2022/03/16 12:54:20;;;;;;;10.85;1.73;;;27.20;54.20;;;;;;5022899;28;20181;-69
2022/03/16 12:56:50;;;;;;;2.78;1.17;;;27.20;54.20;;;;;;5016609;28;20056;-69
2022/03/16 12:59:25;;;;;;;8.10;1.80;;;27.20;54.20;;;;;;5022701;28;20503;-69
2022/03/16 13:01:52;;;;;;;3.28;1.02;;;27.20;54.20;;;;;;5024740;28;20025;-70
2022/03/16 13:04:19;;;;;;;6.07;1.63;;;27.20;54.20;;;;;;5024199;28;20013;-69